sensor_id;sensor_type;location;lat;lon;timestamp;temperature;humidity
8936;DHT22;4503;47.810;13.072;2022-08-01T00:01:07;24.60;78.80
8936;DHT22;4503;47.810;13.072;2022-08-01T00:03:33;24.60;78.70
8936;DHT22;4503;47.810;13.072;2022-08-01T00:05:58;24.60;78.80
8936;DHT22;4503;47.810;13.072;2022-08-01T00:08:24;24.50;78.70
8936;DHT22;4503;47.810;13.072;2022-08-01T00:10:50;24.60;78.70
8936;DHT22;4503;47.810;13.072;2022-08-01T00:13:16;24.50;78.60
8936;DHT22;4503;47.810;13.072;2022-08-01T00:15:41;24.50;78.80
8936;DHT22;4503;47.810;13.072;2022-08-01T00:18:07;24.50;78.90
8936;DHT22;4503;47.810;13.072;2022-08-01T00:20:33;24.50;78.70
8936;DHT22;4503;47.810;13.072;2022-08-01T00:22:59;24.50;78.70
8936;DHT22;4503;47.810;13.072;2022-08-01T00:25:28;24.50;78.60
8936;DHT22;4503;47.810;13.072;2022-08-01T00:27:53;24.50;78.70
8936;DHT22;4503;47.810;13.072;2022-08-01T00:30:19;24.50;78.90
8936;DHT22;4503;47.810;13.072;2022-08-01T00:32:45;24.50;78.70
8936;DHT22;4503;47.810;13.072;2022-08-01T00:35:11;24.40;78.50
8936;DHT22;4503;47.810;13.072;2022-08-01T00:37:37;24.50;78.80
8936;DHT22;4503;47.810;13.072;2022-08-01T00:40:03;24.40;78.90
8936;DHT22;4503;47.810;13.072;2022-08-01T00:42:29;24.40;79.00
8936;DHT22;4503;47.810;13.072;2022-08-01T00:44:55;24.50;78.90
8936;DHT22;4503;47.810;13.072;2022-08-01T00:47:21;24.40;78.90
8936;DHT22;4503;47.810;13.072;2022-08-01T00:49:46;24.40;79.90
8936;DHT22;4503;47.810;13.072;2022-08-01T00:52:12;24.40;79.00
8936;DHT22;4503;47.810;13.072;2022-08-01T00:54:38;24.40;78.90
8936;DHT22;4503;47.810;13.072;2022-08-01T00:57:05;24.40;78.80
8936;DHT22;4503;47.810;13.072;2022-08-01T00:59:31;24.40;79.00
8936;DHT22;4503;47.810;13.072;2022-08-01T01:01:58;24.40;79.00
8936;DHT22;4503;47.810;13.072;2022-08-01T01:04:24;24.40;79.30
8936;DHT22;4503;47.810;13.072;2022-08-01T01:09:57;24.30;78.30
8936;DHT22;4503;47.810;13.072;2022-08-01T01:15:51;24.30;78.60
8936;DHT22;4503;47.810;13.072;2022-08-01T01:18:34;24.40;79.20
8936;DHT22;4503;47.810;13.072;2022-08-01T01:29:30;24.40;79.50
8936;DHT22;4503;47.810;13.072;2022-08-01T01:34:49;24.40;79.50
8936;DHT22;4503;47.810;13.072;2022-08-01T01:37:21;24.40;79.00
8936;DHT22;4503;47.810;13.072;2022-08-01T01:39:51;24.40;79.20
8936;DHT22;4503;47.810;13.072;2022-08-01T01:42:19;24.40;79.50
8936;DHT22;4503;47.810;13.072;2022-08-01T01:44:48;24.40;79.00
8936;DHT22;4503;47.810;13.072;2022-08-01T01:47:17;24.40;79.30
8936;DHT22;4503;47.810;13.072;2022-08-01T01:49:47;24.30;79.10
8936;DHT22;4503;47.810;13.072;2022-08-01T01:52:17;24.30;79.30
8936;DHT22;4503;47.810;13.072;2022-08-01T01:54:49;24.30;79.20
8936;DHT22;4503;47.810;13.072;2022-08-01T01:57:18;24.30;79.20
8936;DHT22;4503;47.810;13.072;2022-08-01T01:59:46;24.30;79.20
8936;DHT22;4503;47.810;13.072;2022-08-01T02:02:15;24.30;79.10
8936;DHT22;4503;47.810;13.072;2022-08-01T02:04:44;24.30;79.30
8936;DHT22;4503;47.810;13.072;2022-08-01T02:07:14;24.30;79.20
8936;DHT22;4503;47.810;13.072;2022-08-01T02:09:46;24.30;79.10
8936;DHT22;4503;47.810;13.072;2022-08-01T02:12:14;24.30;79.10
8936;DHT22;4503;47.810;13.072;2022-08-01T02:14:44;24.30;79.30
8936;DHT22;4503;47.810;13.072;2022-08-01T02:17:16;24.30;79.30
8936;DHT22;4503;47.810;13.072;2022-08-01T02:19:44;24.30;79.00
8936;DHT22;4503;47.810;13.072;2022-08-01T02:22:30;24.30;79.60
8936;DHT22;4503;47.810;13.072;2022-08-01T02:27:42;24.30;79.10
8936;DHT22;4503;47.810;13.072;2022-08-01T02:30:16;24.20;78.70
8936;DHT22;4503;47.810;13.072;2022-08-01T02:33:16;24.30;79.50
8936;DHT22;4503;47.810;13.072;2022-08-01T02:35:56;24.20;79.50
8936;DHT22;4503;47.810;13.072;2022-08-01T02:38:26;24.20;78.70
8936;DHT22;4503;47.810;13.072;2022-08-01T02:40:56;24.20;78.90
8936;DHT22;4503;47.810;13.072;2022-08-01T02:43:26;24.20;79.00
8936;DHT22;4503;47.810;13.072;2022-08-01T02:45:59;24.20;79.70
8936;DHT22;4503;47.810;13.072;2022-08-01T02:48:27;24.10;78.70
8936;DHT22;4503;47.810;13.072;2022-08-01T02:51:00;24.10;79.10
8936;DHT22;4503;47.810;13.072;2022-08-01T02:53:32;24.10;79.00
8936;DHT22;4503;47.810;13.072;2022-08-01T02:56:05;24.10;78.80
8936;DHT22;4503;47.810;13.072;2022-08-01T02:58:34;24.10;79.00
8936;DHT22;4503;47.810;13.072;2022-08-01T03:01:02;24.10;79.20
8936;DHT22;4503;47.810;13.072;2022-08-01T03:03:30;24.10;79.40
8936;DHT22;4503;47.810;13.072;2022-08-01T03:05:58;24.10;79.60
8936;DHT22;4503;47.810;13.072;2022-08-01T03:08:25;24.00;79.50
8936;DHT22;4503;47.810;13.072;2022-08-01T03:10:54;24.00;79.70
8936;DHT22;4503;47.810;13.072;2022-08-01T03:13:22;24.00;79.40
8936;DHT22;4503;47.810;13.072;2022-08-01T03:15:51;24.00;79.50
8936;DHT22;4503;47.810;13.072;2022-08-01T03:18:21;24.00;79.70
8936;DHT22;4503;47.810;13.072;2022-08-01T03:20:52;24.00;79.70
8936;DHT22;4503;47.810;13.072;2022-08-01T03:23:21;24.00;79.80
8936;DHT22;4503;47.810;13.072;2022-08-01T03:25:49;24.00;79.60
8936;DHT22;4503;47.810;13.072;2022-08-01T03:28:18;24.00;79.80
8936;DHT22;4503;47.810;13.072;2022-08-01T03:30:47;24.00;79.60
8936;DHT22;4503;47.810;13.072;2022-08-01T03:33:15;24.00;80.00
8936;DHT22;4503;47.810;13.072;2022-08-01T03:35:46;24.00;80.00
8936;DHT22;4503;47.810;13.072;2022-08-01T03:38:19;24.00;79.90
8936;DHT22;4503;47.810;13.072;2022-08-01T03:40:58;24.00;80.00
8936;DHT22;4503;47.810;13.072;2022-08-01T03:43:34;24.00;80.20
8936;DHT22;4503;47.810;13.072;2022-08-01T03:46:08;24.00;80.50
8936;DHT22;4503;47.810;13.072;2022-08-01T03:48:44;23.90;80.00
8936;DHT22;4503;47.810;13.072;2022-08-01T03:51:14;23.90;79.90
8936;DHT22;4503;47.810;13.072;2022-08-01T03:53:42;23.90;80.30
8936;DHT22;4503;47.810;13.072;2022-08-01T03:56:12;23.90;80.50
8936;DHT22;4503;47.810;13.072;2022-08-01T03:58:40;23.90;80.30
8936;DHT22;4503;47.810;13.072;2022-08-01T04:01:07;23.90;80.60
8936;DHT22;4503;47.810;13.072;2022-08-01T04:03:37;23.90;80.60
8936;DHT22;4503;47.810;13.072;2022-08-01T04:06:07;23.80;80.50
8936;DHT22;4503;47.810;13.072;2022-08-01T04:08:39;23.80;80.30
8936;DHT22;4503;47.810;13.072;2022-08-01T04:11:08;23.70;80.50
8936;DHT22;4503;47.810;13.072;2022-08-01T04:13:34;23.70;80.50
8936;DHT22;4503;47.810;13.072;2022-08-01T04:16:00;23.70;80.50
8936;DHT22;4503;47.810;13.072;2022-08-01T04:18:26;23.70;80.70
8936;DHT22;4503;47.810;13.072;2022-08-01T04:20:52;23.80;80.70
8936;DHT22;4503;47.810;13.072;2022-08-01T04:23:22;23.80;80.70
8936;DHT22;4503;47.810;13.072;2022-08-01T04:25:50;23.80;80.70
8936;DHT22;4503;47.810;13.072;2022-08-01T04:28:18;23.80;81.00
8936;DHT22;4503;47.810;13.072;2022-08-01T04:30:46;23.70;81.00
8936;DHT22;4503;47.810;13.072;2022-08-01T04:33:16;23.70;80.90
8936;DHT22;4503;47.810;13.072;2022-08-01T04:35:45;23.70;81.70
8936;DHT22;4503;47.810;13.072;2022-08-01T04:38:17;23.70;81.40
8936;DHT22;4503;47.810;13.072;2022-08-01T04:40:47;23.70;81.50
8936;DHT22;4503;47.810;13.072;2022-08-01T04:43:15;23.70;81.90
8936;DHT22;4503;47.810;13.072;2022-08-01T04:45:43;23.70;82.00
8936;DHT22;4503;47.810;13.072;2022-08-01T04:48:11;23.70;82.10
8936;DHT22;4503;47.810;13.072;2022-08-01T04:50:38;23.80;82.20
8936;DHT22;4503;47.810;13.072;2022-08-01T04:53:19;23.80;82.60
8936;DHT22;4503;47.810;13.072;2022-08-01T04:55:47;23.80;82.00
8936;DHT22;4503;47.810;13.072;2022-08-01T04:58:14;23.80;83.20
8936;DHT22;4503;47.810;13.072;2022-08-01T05:00:41;23.80;82.50
8936;DHT22;4503;47.810;13.072;2022-08-01T05:03:07;23.80;82.00
8936;DHT22;4503;47.810;13.072;2022-08-01T05:05:33;23.80;82.20
8936;DHT22;4503;47.810;13.072;2022-08-01T05:07:59;23.90;82.30
8936;DHT22;4503;47.810;13.072;2022-08-01T05:10:26;23.90;82.20
8936;DHT22;4503;47.810;13.072;2022-08-01T05:12:52;23.90;82.50
8936;DHT22;4503;47.810;13.072;2022-08-01T05:15:18;23.90;82.10
8936;DHT22;4503;47.810;13.072;2022-08-01T05:17:45;23.90;81.70
8936;DHT22;4503;47.810;13.072;2022-08-01T05:20:11;23.80;81.60
8936;DHT22;4503;47.810;13.072;2022-08-01T05:22:37;23.80;81.70
8936;DHT22;4503;47.810;13.072;2022-08-01T05:25:04;23.80;82.00
8936;DHT22;4503;47.810;13.072;2022-08-01T05:27:31;23.80;81.90
8936;DHT22;4503;47.810;13.072;2022-08-01T05:29:57;23.80;82.00
8936;DHT22;4503;47.810;13.072;2022-08-01T05:32:23;23.90;82.60
8936;DHT22;4503;47.810;13.072;2022-08-01T05:34:49;23.90;82.70
8936;DHT22;4503;47.810;13.072;2022-08-01T05:37:15;23.90;82.70
8936;DHT22;4503;47.810;13.072;2022-08-01T05:39:41;23.90;82.60
8936;DHT22;4503;47.810;13.072;2022-08-01T05:42:06;23.90;82.70
8936;DHT22;4503;47.810;13.072;2022-08-01T05:44:32;24.00;82.50
8936;DHT22;4503;47.810;13.072;2022-08-01T05:46:58;24.00;82.40
8936;DHT22;4503;47.810;13.072;2022-08-01T05:49:24;24.10;82.60
8936;DHT22;4503;47.810;13.072;2022-08-01T05:51:49;24.10;82.50
8936;DHT22;4503;47.810;13.072;2022-08-01T05:54:15;24.20;83.00
8936;DHT22;4503;47.810;13.072;2022-08-01T05:56:41;24.20;82.80
8936;DHT22;4503;47.810;13.072;2022-08-01T05:59:07;24.30;82.90
8936;DHT22;4503;47.810;13.072;2022-08-01T06:01:33;24.30;83.20
8936;DHT22;4503;47.810;13.072;2022-08-01T06:03:58;24.40;83.30
8936;DHT22;4503;47.810;13.072;2022-08-01T06:06:25;24.50;83.30
8936;DHT22;4503;47.810;13.072;2022-08-01T06:08:51;24.50;83.50
8936;DHT22;4503;47.810;13.072;2022-08-01T06:11:17;24.60;83.70
8936;DHT22;4503;47.810;13.072;2022-08-01T06:13:43;24.70;83.80
8936;DHT22;4503;47.810;13.072;2022-08-01T06:16:08;24.70;84.00
8936;DHT22;4503;47.810;13.072;2022-08-01T06:18:34;24.80;84.00
8936;DHT22;4503;47.810;13.072;2022-08-01T06:21:00;24.90;84.10
8936;DHT22;4503;47.810;13.072;2022-08-01T06:23:26;24.90;84.30
8936;DHT22;4503;47.810;13.072;2022-08-01T06:25:53;25.00;84.40
8936;DHT22;4503;47.810;13.072;2022-08-01T06:28:20;25.10;84.50
8936;DHT22;4503;47.810;13.072;2022-08-01T06:30:46;25.10;84.70
8936;DHT22;4503;47.810;13.072;2022-08-01T06:33:12;25.20;84.30
8936;DHT22;4503;47.810;13.072;2022-08-01T06:35:38;25.20;84.40
8936;DHT22;4503;47.810;13.072;2022-08-01T06:38:04;25.30;84.50
8936;DHT22;4503;47.810;13.072;2022-08-01T06:40:30;25.30;84.20
8936;DHT22;4503;47.810;13.072;2022-08-01T06:42:55;25.40;84.20
8936;DHT22;4503;47.810;13.072;2022-08-01T06:45:21;25.50;84.30
8936;DHT22;4503;47.810;13.072;2022-08-01T06:47:52;25.60;84.50
8936;DHT22;4503;47.810;13.072;2022-08-01T06:50:18;25.60;84.40
8936;DHT22;4503;47.810;13.072;2022-08-01T06:52:44;25.70;84.20
8936;DHT22;4503;47.810;13.072;2022-08-01T06:55:10;25.80;84.00
8936;DHT22;4503;47.810;13.072;2022-08-01T06:57:36;25.80;83.90
8936;DHT22;4503;47.810;13.072;2022-08-01T07:00:11;25.90;84.00
8936;DHT22;4503;47.810;13.072;2022-08-01T07:02:38;26.00;83.90
8936;DHT22;4503;47.810;13.072;2022-08-01T07:05:04;26.00;83.70
8936;DHT22;4503;47.810;13.072;2022-08-01T07:07:31;26.10;84.00
8936;DHT22;4503;47.810;13.072;2022-08-01T07:09:57;26.30;83.90
8936;DHT22;4503;47.810;13.072;2022-08-01T07:12:22;26.40;84.10
8936;DHT22;4503;47.810;13.072;2022-08-01T07:14:48;26.50;83.70
8936;DHT22;4503;47.810;13.072;2022-08-01T07:17:14;26.70;83.70
8936;DHT22;4503;47.810;13.072;2022-08-01T07:19:40;26.90;82.80
8936;DHT22;4503;47.810;13.072;2022-08-01T07:22:05;27.00;82.70
8936;DHT22;4503;47.810;13.072;2022-08-01T07:24:31;27.20;82.00
8936;DHT22;4503;47.810;13.072;2022-08-01T07:26:57;27.40;83.00
8936;DHT22;4503;47.810;13.072;2022-08-01T07:29:24;27.50;80.70
8936;DHT22;4503;47.810;13.072;2022-08-01T07:31:52;27.60;79.40
8936;DHT22;4503;47.810;13.072;2022-08-01T07:34:19;27.70;79.50
8936;DHT22;4503;47.810;13.072;2022-08-01T07:36:45;27.90;79.10
8936;DHT22;4503;47.810;13.072;2022-08-01T07:39:11;28.00;77.60
8936;DHT22;4503;47.810;13.072;2022-08-01T07:41:36;28.10;78.30
8936;DHT22;4503;47.810;13.072;2022-08-01T07:44:02;28.20;77.30
8936;DHT22;4503;47.810;13.072;2022-08-01T07:46:28;28.20;77.50
8936;DHT22;4503;47.810;13.072;2022-08-01T07:48:56;28.30;76.40
8936;DHT22;4503;47.810;13.072;2022-08-01T07:51:22;28.40;76.70
8936;DHT22;4503;47.810;13.072;2022-08-01T07:53:48;28.40;76.20
8936;DHT22;4503;47.810;13.072;2022-08-01T07:56:14;28.50;76.10
8936;DHT22;4503;47.810;13.072;2022-08-01T07:58:40;28.50;75.50
8936;DHT22;4503;47.810;13.072;2022-08-01T08:01:06;28.50;76.00
8936;DHT22;4503;47.810;13.072;2022-08-01T08:03:31;28.50;75.50
8936;DHT22;4503;47.810;13.072;2022-08-01T08:05:57;28.50;75.40
8936;DHT22;4503;47.810;13.072;2022-08-01T08:08:23;28.40;74.80
8936;DHT22;4503;47.810;13.072;2022-08-01T08:10:49;28.40;74.70
8936;DHT22;4503;47.810;13.072;2022-08-01T08:13:15;28.40;74.50
8936;DHT22;4503;47.810;13.072;2022-08-01T08:15:41;28.40;74.30
8936;DHT22;4503;47.810;13.072;2022-08-01T08:18:07;28.30;73.00
8936;DHT22;4503;47.810;13.072;2022-08-01T08:20:33;28.30;73.00
8936;DHT22;4503;47.810;13.072;2022-08-01T08:22:59;28.30;73.30
8936;DHT22;4503;47.810;13.072;2022-08-01T08:25:25;28.30;73.20
8936;DHT22;4503;47.810;13.072;2022-08-01T08:27:53;28.40;72.70
8936;DHT22;4503;47.810;13.072;2022-08-01T08:30:19;28.40;73.20
8936;DHT22;4503;47.810;13.072;2022-08-01T08:32:45;28.50;73.10
8936;DHT22;4503;47.810;13.072;2022-08-01T08:35:10;28.50;72.40
8936;DHT22;4503;47.810;13.072;2022-08-01T08:37:37;28.60;72.20
8936;DHT22;4503;47.810;13.072;2022-08-01T08:40:04;28.70;72.20
8936;DHT22;4503;47.810;13.072;2022-08-01T08:42:32;28.80;73.70
8936;DHT22;4503;47.810;13.072;2022-08-01T08:44:58;28.90;73.70
8936;DHT22;4503;47.810;13.072;2022-08-01T08:47:25;29.00;73.00
8936;DHT22;4503;47.810;13.072;2022-08-01T08:49:56;29.00;71.80
8936;DHT22;4503;47.810;13.072;2022-08-01T08:52:23;29.00;72.80
8936;DHT22;4503;47.810;13.072;2022-08-01T08:54:50;29.10;71.80
8936;DHT22;4503;47.810;13.072;2022-08-01T08:57:18;29.10;72.00
8936;DHT22;4503;47.810;13.072;2022-08-01T08:59:45;29.10;71.40
8936;DHT22;4503;47.810;13.072;2022-08-01T09:02:11;29.10;70.90
8936;DHT22;4503;47.810;13.072;2022-08-01T09:04:38;29.10;71.20
8936;DHT22;4503;47.810;13.072;2022-08-01T09:07:06;29.10;69.80
8936;DHT22;4503;47.810;13.072;2022-08-01T09:09:33;29.10;68.00
8936;DHT22;4503;47.810;13.072;2022-08-01T09:11:59;29.00;68.80
8936;DHT22;4503;47.810;13.072;2022-08-01T09:14:27;29.00;67.50
8936;DHT22;4503;47.810;13.072;2022-08-01T09:17:03;29.00;68.70
8936;DHT22;4503;47.810;13.072;2022-08-01T09:19:38;29.10;68.20
8936;DHT22;4503;47.810;13.072;2022-08-01T09:22:15;29.10;68.10
8936;DHT22;4503;47.810;13.072;2022-08-01T09:25:03;29.10;69.00
8936;DHT22;4503;47.810;13.072;2022-08-01T09:27:31;29.20;67.50
8936;DHT22;4503;47.810;13.072;2022-08-01T09:30:15;29.20;67.70
8936;DHT22;4503;47.810;13.072;2022-08-01T09:32:58;29.20;67.10
8936;DHT22;4503;47.810;13.072;2022-08-01T09:35:29;29.20;67.00
8936;DHT22;4503;47.810;13.072;2022-08-01T09:38:15;29.30;67.50
8936;DHT22;4503;47.810;13.072;2022-08-01T09:43:24;29.30;66.30
8936;DHT22;4503;47.810;13.072;2022-08-01T09:45:56;29.30;66.50
8936;DHT22;4503;47.810;13.072;2022-08-01T09:48:23;29.40;66.70
8936;DHT22;4503;47.810;13.072;2022-08-01T09:50:51;29.50;66.60
8936;DHT22;4503;47.810;13.072;2022-08-01T09:53:18;29.50;66.20
8936;DHT22;4503;47.810;13.072;2022-08-01T09:55:44;29.60;66.80
8936;DHT22;4503;47.810;13.072;2022-08-01T10:00:39;29.60;65.40
8936;DHT22;4503;47.810;13.072;2022-08-01T10:03:25;29.70;65.80
8936;DHT22;4503;47.810;13.072;2022-08-01T10:05:52;29.70;64.50
8936;DHT22;4503;47.810;13.072;2022-08-01T10:08:23;29.80;65.70
8936;DHT22;4503;47.810;13.072;2022-08-01T10:11:11;29.80;66.40
8936;DHT22;4503;47.810;13.072;2022-08-01T10:13:37;29.90;65.80
8936;DHT22;4503;47.810;13.072;2022-08-01T10:16:05;29.90;65.90
8936;DHT22;4503;47.810;13.072;2022-08-01T10:18:34;30.00;65.70
8936;DHT22;4503;47.810;13.072;2022-08-01T10:21:02;30.00;66.70
8936;DHT22;4503;47.810;13.072;2022-08-01T10:23:33;30.10;66.40
8936;DHT22;4503;47.810;13.072;2022-08-01T10:26:00;30.20;67.20
8936;DHT22;4503;47.810;13.072;2022-08-01T10:28:30;30.40;66.50
8936;DHT22;4503;47.810;13.072;2022-08-01T10:30:57;30.40;66.40
8936;DHT22;4503;47.810;13.072;2022-08-01T10:33:24;30.50;65.50
8936;DHT22;4503;47.810;13.072;2022-08-01T10:35:51;30.50;65.50
8936;DHT22;4503;47.810;13.072;2022-08-01T10:38:17;30.60;65.80
8936;DHT22;4503;47.810;13.072;2022-08-01T10:40:43;30.60;65.90
8936;DHT22;4503;47.810;13.072;2022-08-01T10:43:11;30.70;65.50
8936;DHT22;4503;47.810;13.072;2022-08-01T10:45:39;30.80;64.90
8936;DHT22;4503;47.810;13.072;2022-08-01T10:48:16;30.80;65.00
8936;DHT22;4503;47.810;13.072;2022-08-01T10:50:51;30.80;64.60
8936;DHT22;4503;47.810;13.072;2022-08-01T10:53:22;30.90;65.00
8936;DHT22;4503;47.810;13.072;2022-08-01T10:56:00;31.00;64.90
8936;DHT22;4503;47.810;13.072;2022-08-01T10:58:37;31.00;64.80
8936;DHT22;4503;47.810;13.072;2022-08-01T11:07:07;31.20;63.80
8936;DHT22;4503;47.810;13.072;2022-08-01T11:10:00;31.20;62.20
8936;DHT22;4503;47.810;13.072;2022-08-01T11:12:39;31.20;64.30
8936;DHT22;4503;47.810;13.072;2022-08-01T11:17:46;31.40;62.80
8936;DHT22;4503;47.810;13.072;2022-08-01T11:20:18;31.30;62.30
8936;DHT22;4503;47.810;13.072;2022-08-01T11:33:47;31.50;60.50
8936;DHT22;4503;47.810;13.072;2022-08-01T11:41:32;31.60;59.80
8936;DHT22;4503;47.810;13.072;2022-08-01T11:46:46;31.70;61.40
8936;DHT22;4503;47.810;13.072;2022-08-01T11:49:23;31.80;60.30
8936;DHT22;4503;47.810;13.072;2022-08-01T11:52:12;31.90;61.10
8936;DHT22;4503;47.810;13.072;2022-08-01T11:59:54;32.20;59.20
8936;DHT22;4503;47.810;13.072;2022-08-01T12:04:59;32.50;58.10
8936;DHT22;4503;47.810;13.072;2022-08-01T12:07:28;32.70;57.50
8936;DHT22;4503;47.810;13.072;2022-08-01T12:10:07;32.90;56.70
8936;DHT22;4503;47.810;13.072;2022-08-01T12:12:44;33.10;55.40
8936;DHT22;4503;47.810;13.072;2022-08-01T12:15:12;33.30;55.10
8936;DHT22;4503;47.810;13.072;2022-08-01T12:17:44;33.50;55.50
8936;DHT22;4503;47.810;13.072;2022-08-01T12:20:20;33.70;55.70
8936;DHT22;4503;47.810;13.072;2022-08-01T12:22:47;33.90;54.10
8936;DHT22;4503;47.810;13.072;2022-08-01T12:25:18;34.00;54.30
8936;DHT22;4503;47.810;13.072;2022-08-01T12:27:45;34.10;52.70
8936;DHT22;4503;47.810;13.072;2022-08-01T12:30:14;34.20;53.80
8936;DHT22;4503;47.810;13.072;2022-08-01T12:32:45;34.30;53.30
8936;DHT22;4503;47.810;13.072;2022-08-01T12:35:22;34.50;53.70
8936;DHT22;4503;47.810;13.072;2022-08-01T12:37:54;34.60;51.60
8936;DHT22;4503;47.810;13.072;2022-08-01T12:40:34;34.70;51.70
8936;DHT22;4503;47.810;13.072;2022-08-01T12:43:06;34.80;50.50
8936;DHT22;4503;47.810;13.072;2022-08-01T12:45:36;34.90;50.20
8936;DHT22;4503;47.810;13.072;2022-08-01T12:48:10;35.00;51.20
8936;DHT22;4503;47.810;13.072;2022-08-01T12:50:38;35.00;52.40
8936;DHT22;4503;47.810;13.072;2022-08-01T12:53:05;35.20;52.00
8936;DHT22;4503;47.810;13.072;2022-08-01T12:55:33;35.30;52.30
8936;DHT22;4503;47.810;13.072;2022-08-01T12:58:11;35.50;52.20
8936;DHT22;4503;47.810;13.072;2022-08-01T13:00:40;35.60;52.10
8936;DHT22;4503;47.810;13.072;2022-08-01T13:03:09;35.80;52.30
8936;DHT22;4503;47.810;13.072;2022-08-01T13:05:52;35.80;51.70
8936;DHT22;4503;47.810;13.072;2022-08-01T13:08:31;35.90;51.00
8936;DHT22;4503;47.810;13.072;2022-08-01T13:11:11;36.00;51.60
8936;DHT22;4503;47.810;13.072;2022-08-01T13:13:48;36.10;50.70
8936;DHT22;4503;47.810;13.072;2022-08-01T13:16:22;36.20;50.60
8936;DHT22;4503;47.810;13.072;2022-08-01T13:18:54;36.30;50.40
8936;DHT22;4503;47.810;13.072;2022-08-01T13:21:31;36.40;50.60
8936;DHT22;4503;47.810;13.072;2022-08-01T13:24:11;36.50;50.50
8936;DHT22;4503;47.810;13.072;2022-08-01T13:29:06;36.70;51.00
8936;DHT22;4503;47.810;13.072;2022-08-01T13:31:34;36.70;48.70
8936;DHT22;4503;47.810;13.072;2022-08-01T13:34:01;36.70;48.90
8936;DHT22;4503;47.810;13.072;2022-08-01T13:36:28;36.80;48.90
8936;DHT22;4503;47.810;13.072;2022-08-01T13:38:55;36.80;48.30
8936;DHT22;4503;47.810;13.072;2022-08-01T13:41:40;36.90;48.60
8936;DHT22;4503;47.810;13.072;2022-08-01T13:44:06;37.00;48.90
8936;DHT22;4503;47.810;13.072;2022-08-01T13:46:34;37.10;49.60
8936;DHT22;4503;47.810;13.072;2022-08-01T13:49:02;37.20;49.60
8936;DHT22;4503;47.810;13.072;2022-08-01T13:51:28;37.20;49.80
8936;DHT22;4503;47.810;13.072;2022-08-01T13:53:54;37.10;49.30
8936;DHT22;4503;47.810;13.072;2022-08-01T13:56:20;37.00;48.50
8936;DHT22;4503;47.810;13.072;2022-08-01T13:58:46;36.80;49.40
8936;DHT22;4503;47.810;13.072;2022-08-01T14:01:12;36.60;50.90
8936;DHT22;4503;47.810;13.072;2022-08-01T14:03:38;36.40;50.20
8936;DHT22;4503;47.810;13.072;2022-08-01T14:06:04;36.20;51.30
8936;DHT22;4503;47.810;13.072;2022-08-01T14:08:30;36.10;50.80
8936;DHT22;4503;47.810;13.072;2022-08-01T14:10:56;36.10;51.10
8936;DHT22;4503;47.810;13.072;2022-08-01T14:13:27;36.10;51.20
8936;DHT22;4503;47.810;13.072;2022-08-01T14:15:53;36.10;51.30
8936;DHT22;4503;47.810;13.072;2022-08-01T14:18:19;36.20;52.00
8936;DHT22;4503;47.810;13.072;2022-08-01T14:20:46;36.20;51.80
8936;DHT22;4503;47.810;13.072;2022-08-01T14:23:12;36.20;52.40
8936;DHT22;4503;47.810;13.072;2022-08-01T14:25:39;36.20;52.40
8936;DHT22;4503;47.810;13.072;2022-08-01T14:28:09;36.10;52.40
8936;DHT22;4503;47.810;13.072;2022-08-01T14:30:36;36.10;52.10
8936;DHT22;4503;47.810;13.072;2022-08-01T14:33:02;36.10;52.60
8936;DHT22;4503;47.810;13.072;2022-08-01T14:35:28;36.00;52.50
8936;DHT22;4503;47.810;13.072;2022-08-01T14:37:54;36.00;52.60
8936;DHT22;4503;47.810;13.072;2022-08-01T14:40:20;36.00;52.50
8936;DHT22;4503;47.810;13.072;2022-08-01T14:42:45;36.00;52.70
8936;DHT22;4503;47.810;13.072;2022-08-01T14:45:12;35.90;52.20
8936;DHT22;4503;47.810;13.072;2022-08-01T14:47:41;35.90;52.30
8936;DHT22;4503;47.810;13.072;2022-08-01T14:50:10;35.80;52.10
8936;DHT22;4503;47.810;13.072;2022-08-01T14:52:38;35.70;52.00
8936;DHT22;4503;47.810;13.072;2022-08-01T14:55:06;35.60;52.20
8936;DHT22;4503;47.810;13.072;2022-08-01T14:57:35;35.50;52.00
8936;DHT22;4503;47.810;13.072;2022-08-01T15:00:04;35.50;52.30
8936;DHT22;4503;47.810;13.072;2022-08-01T15:02:31;35.40;52.90
8936;DHT22;4503;47.810;13.072;2022-08-01T15:04:57;35.40;52.80
8936;DHT22;4503;47.810;13.072;2022-08-01T15:07:24;35.30;53.00
8936;DHT22;4503;47.810;13.072;2022-08-01T15:09:50;35.20;52.90
8936;DHT22;4503;47.810;13.072;2022-08-01T15:12:15;35.20;53.10
8936;DHT22;4503;47.810;13.072;2022-08-01T15:14:41;35.10;54.00
8936;DHT22;4503;47.810;13.072;2022-08-01T15:17:46;35.00;53.40
8936;DHT22;4503;47.810;13.072;2022-08-01T15:20:06;35.00;53.70
8936;DHT22;4503;47.810;13.072;2022-08-01T15:22:33;35.00;53.80
8936;DHT22;4503;47.810;13.072;2022-08-01T15:25:00;34.90;54.00
8936;DHT22;4503;47.810;13.072;2022-08-01T15:27:27;35.00;54.80
8936;DHT22;4503;47.810;13.072;2022-08-01T15:29:54;35.30;55.80
8936;DHT22;4503;47.810;13.072;2022-08-01T15:32:21;35.60;56.00
8936;DHT22;4503;47.810;13.072;2022-08-01T15:34:47;36.10;56.70
8936;DHT22;4503;47.810;13.072;2022-08-01T15:37:13;36.60;56.40
8936;DHT22;4503;47.810;13.072;2022-08-01T15:39:40;37.00;56.30
8936;DHT22;4503;47.810;13.072;2022-08-01T15:42:09;37.50;56.40
8936;DHT22;4503;47.810;13.072;2022-08-01T15:44:37;38.00;56.10
8936;DHT22;4503;47.810;13.072;2022-08-01T15:47:04;38.50;55.50
8936;DHT22;4503;47.810;13.072;2022-08-01T15:49:31;39.00;55.50
8936;DHT22;4503;47.810;13.072;2022-08-01T15:51:58;39.60;54.10
8936;DHT22;4503;47.810;13.072;2022-08-01T15:54:24;39.80;53.00
8936;DHT22;4503;47.810;13.072;2022-08-01T15:56:50;40.00;52.60
8936;DHT22;4503;47.810;13.072;2022-08-01T15:59:18;40.10;51.60
8936;DHT22;4503;47.810;13.072;2022-08-01T16:01:44;39.90;50.50
8936;DHT22;4503;47.810;13.072;2022-08-01T16:04:10;39.60;50.30
8936;DHT22;4503;47.810;13.072;2022-08-01T16:06:36;39.10;49.80
8936;DHT22;4503;47.810;13.072;2022-08-01T16:09:05;38.70;48.70
8936;DHT22;4503;47.810;13.072;2022-08-01T16:11:31;38.20;48.30
8936;DHT22;4503;47.810;13.072;2022-08-01T16:13:58;37.70;48.50
8936;DHT22;4503;47.810;13.072;2022-08-01T16:16:24;37.20;48.50
8936;DHT22;4503;47.810;13.072;2022-08-01T16:18:50;36.70;48.70
8936;DHT22;4503;47.810;13.072;2022-08-01T16:21:16;36.30;49.00
8936;DHT22;4503;47.810;13.072;2022-08-01T16:23:46;35.80;49.00
8936;DHT22;4503;47.810;13.072;2022-08-01T16:26:12;35.50;49.80
8936;DHT22;4503;47.810;13.072;2022-08-01T16:28:39;35.30;50.40
8936;DHT22;4503;47.810;13.072;2022-08-01T16:31:05;35.30;51.60
8936;DHT22;4503;47.810;13.072;2022-08-01T16:33:32;35.50;52.70
8936;DHT22;4503;47.810;13.072;2022-08-01T16:35:59;35.80;53.20
8936;DHT22;4503;47.810;13.072;2022-08-01T16:38:27;35.80;52.20
8936;DHT22;4503;47.810;13.072;2022-08-01T16:40:53;35.80;51.80
8936;DHT22;4503;47.810;13.072;2022-08-01T16:43:20;35.70;51.50
8936;DHT22;4503;47.810;13.072;2022-08-01T16:45:46;35.60;51.20
8936;DHT22;4503;47.810;13.072;2022-08-01T16:48:14;35.30;51.10
8936;DHT22;4503;47.810;13.072;2022-08-01T16:50:42;35.10;51.10
8936;DHT22;4503;47.810;13.072;2022-08-01T16:53:08;34.80;50.80
8936;DHT22;4503;47.810;13.072;2022-08-01T16:55:34;34.50;50.80
8936;DHT22;4503;47.810;13.072;2022-08-01T16:58:01;34.20;51.00